Time;durP1;ratioP1;P1;durP2;ratioP2;P2;SDS_P1;SDS_P2;PMS_P1;PMS_P2;Temp;Humidity;BMP_temperature;BMP_pressure;BME280_temperature;BME280_humidity;BME280_pressure;Samples;Min_cycle;Max_cycle;Signal;HPM_P1;HPM_P2
2023/07/22 00:00:30;;;;;;;4.72;3.95;;;;;;;13.59;100.00;100863.94;5074665;28;20131;-57
2023/07/22 00:02:57;;;;;;;7.85;4.10;;;;;;;13.64;100.00;100867.19;5083976;28;20436;-56
2023/07/22 00:05:25;;;;;;;6.38;4.35;;;;;;;13.70;100.00;100858.88;5081455;28;20082;-56
2023/07/22 00:07:52;;;;;;;6.97;4.43;;;;;;;13.68;100.00;100863.44;5086897;28;20060;-56
2023/07/22 00:10:19;;;;;;;7.88;4.82;;;;;;;13.68;100.00;100858.13;5083035;28;20056;-56
2023/07/22 00:12:45;;;;;;;6.22;5.63;;;;;;;13.70;100.00;100850.91;5090726;28;20105;-56
2023/07/22 00:15:12;;;;;;;6.30;5.47;;;;;;;13.74;100.00;100846.28;5090430;28;20044;-56
2023/07/22 00:17:40;;;;;;;6.97;4.40;;;;;;;13.77;100.00;100851.41;5090738;28;20097;-56
2023/07/22 00:20:10;;;;;;;7.80;4.90;;;;;;;13.74;100.00;100857.75;5079642;28;20040;-56
2023/07/22 00:22:40;;;;;;;10.23;6.95;;;;;;;13.77;100.00;100859.38;5074466;28;20128;-57
2023/07/22 00:25:10;;;;;;;13.95;10.38;;;;;;;13.77;100.00;100857.59;5085098;28;20105;-55
2023/07/22 00:27:41;;;;;;;18.40;14.27;;;;;;;13.82;100.00;100853.81;5086872;28;20048;-55
2023/07/22 00:30:08;;;;;;;15.95;12.57;;;;;;;13.82;100.00;100864.44;5089778;28;20052;-57
2023/07/22 00:32:37;;;;;;;19.27;13.48;;;;;;;13.87;100.00;100857.06;5090623;28;20130;-56
2023/07/22 00:35:05;;;;;;;23.67;15.37;;;;;;;13.88;100.00;100858.78;5090138;28;20135;-56
2023/07/22 00:37:32;;;;;;;21.95;14.65;;;;;;;13.88;100.00;100837.53;5088280;28;20746;-57
2023/07/22 00:40:00;;;;;;;20.27;12.82;;;;;;;13.89;100.00;100861.31;5087584;28;20503;-55
2023/07/22 00:42:27;;;;;;;18.38;11.40;;;;;;;13.89;100.00;100845.38;5089932;28;20076;-57
2023/07/22 00:44:53;;;;;;;15.93;10.43;;;;;;;13.89;100.00;100844.53;5088712;28;20055;-56
2023/07/22 00:47:21;;;;;;;18.20;10.43;;;;;;;13.91;100.00;100858.59;5078227;28;20050;-55
2023/07/22 00:49:49;;;;;;;13.63;8.73;;;;;;;13.92;100.00;100857.66;5089822;28;20178;-57
2023/07/22 00:52:16;;;;;;;9.30;5.35;;;;;;;13.88;100.00;100858.78;5090104;28;20063;-56
2023/07/22 00:54:44;;;;;;;14.73;9.20;;;;;;;13.93;100.00;100857.56;5087410;28;20140;-56
2023/07/22 00:57:11;;;;;;;12.95;7.57;;;;;;;13.92;100.00;100860.31;5089896;28;20130;-56
2023/07/22 00:59:40;;;;;;;13.07;6.20;;;;;;;13.97;100.00;100858.22;5091674;28;20048;-57
2023/07/22 01:02:06;;;;;;;9.38;7.20;;;;;;;13.90;100.00;100867.50;5070126;28;20519;-57
2023/07/22 01:04:35;;;;;;;7.82;5.43;;;;;;;13.90;100.00;100867.50;5082516;28;20052;-56
2023/07/22 01:07:06;;;;;;;8.77;5.72;;;;;;;13.90;100.00;100862.19;5090138;28;20131;-55
2023/07/22 01:09:41;;;;;;;11.35;5.38;;;;;;;13.91;100.00;100869.22;5089595;28;20524;-57
2023/07/22 01:12:08;;;;;;;11.52;5.13;;;;;;;13.91;100.00;100869.22;5087190;28;20044;-56
2023/07/22 01:14:40;;;;;;;6.18;5.05;;;;;;;13.90;100.00;100868.34;5079110;28;20044;-56
2023/07/22 01:17:10;;;;;;;9.27;5.63;;;;;;;13.94;100.00;100850.44;5089487;28;20047;-56
2023/07/22 01:19:36;;;;;;;8.40;4.88;;;;;;;13.94;100.00;100863.72;5094625;28;20044;-56
2023/07/22 01:22:08;;;;;;;7.60;5.20;;;;;;;13.96;100.00;100872.47;5094807;28;20062;-56
2023/07/22 01:24:35;;;;;;;7.05;5.30;;;;;;;13.93;100.00;100856.72;5089957;28;20056;-55
2023/07/22 01:27:03;;;;;;;6.00;4.65;;;;;;;13.92;100.00;100863.81;5088905;28;20056;-56
2023/07/22 01:29:30;;;;;;;9.43;5.05;;;;;;;13.93;100.00;100856.72;5089092;28;20056;-56
2023/07/22 01:31:56;;;;;;;8.43;5.82;;;;;;;13.91;100.00;100863.91;5075327;28;20139;-56
2023/07/22 01:34:24;;;;;;;9.30;5.50;;;;;;;13.91;100.00;100874.53;5088793;28;20044;-55
2023/07/22 01:36:51;;;;;;;7.50;5.78;;;;;;;13.83;100.00;100872.31;5089200;28;20457;-56
2023/07/22 01:39:21;;;;;;;8.10;5.40;;;;;;;13.82;100.00;100883.03;5086874;28;20112;-56
2023/07/22 01:41:48;;;;;;;7.07;5.93;;;;;;;13.75;100.00;100880.72;5089591;28;20132;-56
2023/07/22 01:44:15;;;;;;;8.68;5.07;;;;;;;13.69;100.00;100881.06;5089018;28;20044;-56
2023/07/22 01:46:41;;;;;;;5.85;5.15;;;;;;;13.67;100.00;100884.78;5082924;28;20568;-55
2023/07/22 01:49:12;;;;;;;8.90;5.72;;;;;;;13.64;100.00;100888.44;5080840;28;20215;-55
2023/07/22 01:51:42;;;;;;;6.75;5.20;;;;;;;13.62;100.00;100884.16;5088860;28;20055;-56
2023/07/22 01:54:10;;;;;;;10.38;4.80;;;;;;;13.59;100.00;100890.50;5088024;28;20055;-56
2023/07/22 01:56:37;;;;;;;6.80;4.93;;;;;;;13.60;100.00;100897.53;5088887;28;20048;-55
2023/07/22 01:59:03;;;;;;;8.07;5.10;;;;;;;13.54;100.00;100901.38;5089110;28;20075;-56
2023/07/22 02:01:31;;;;;;;6.53;5.13;;;;;;;13.51;100.00;100903.34;5089353;28;20056;-56
2023/07/22 02:03:58;;;;;;;7.15;5.20;;;;;;;13.48;100.00;100906.19;5092211;28;20035;-56
2023/07/22 02:06:26;;;;;;;6.88;5.40;;;;;;;13.43;100.00;100910.88;5089218;28;20051;-56
2023/07/22 02:08:53;;;;;;;10.65;4.88;;;;;;;13.40;100.00;100912.78;5088501;28;20109;-55
2023/07/22 02:11:20;;;;;;;6.47;4.68;;;;;;;13.40;100.00;100915.44;5088619;28;20055;-56
2023/07/22 02:13:46;;;;;;;8.60;4.80;;;;;;;13.35;100.00;100913.97;5086217;28;20127;-56
2023/07/22 02:16:13;;;;;;;7.13;4.40;;;;;;;13.28;100.00;100918.72;5085772;28;20138;-56
2023/07/22 02:18:39;;;;;;;8.65;5.22;;;;;;;13.26;100.00;100909.97;5088260;28;20059;-56
2023/07/22 02:21:06;;;;;;;6.15;5.18;;;;;;;13.25;100.00;100918.88;5088649;28;20044;-56
2023/07/22 02:23:33;;;;;;;5.53;4.50;;;;;;;13.26;100.00;100923.25;5086458;28;20044;-57
2023/07/22 02:25:59;;;;;;;5.88;4.75;;;;;;;13.27;100.00;100932.91;5087598;28;20062;-55
2023/07/22 02:28:26;;;;;;;8.82;5.10;;;;;;;13.23;100.00;100932.22;5087954;28;20048;-56
2023/07/22 02:30:53;;;;;;;7.50;4.93;;;;;;;13.26;100.00;100936.53;5087970;28;20407;-55
2023/07/22 02:33:24;;;;;;;7.28;4.43;;;;;;;13.28;100.00;100931.97;5086815;28;20052;-55
2023/07/22 02:35:50;;;;;;;5.85;4.53;;;;;;;13.26;100.00;100925.91;5085906;28;20074;-56
2023/07/22 02:38:17;;;;;;;6.25;3.83;;;;;;;13.27;100.00;100927.59;5080799;28;20540;-56
2023/07/22 02:40:44;;;;;;;6.53;4.22;;;;;;;13.26;100.00;100925.91;5087732;28;20080;-56
2023/07/22 02:43:10;;;;;;;6.18;3.72;;;;;;;13.26;100.00;100928.56;5067257;28;20476;-56
2023/07/22 02:45:37;;;;;;;5.57;4.15;;;;;;;13.23;100.00;100931.38;5077669;28;20135;-56
2023/07/22 02:48:04;;;;;;;4.47;3.83;;;;;;;13.18;100.00;100934.28;5069335;28;20667;-56
2023/07/22 02:50:31;;;;;;;4.43;3.47;;;;;;;13.12;100.00;100939.06;5074864;28;20499;-56
2023/07/22 02:52:57;;;;;;;6.18;3.45;;;;;;;13.08;100.00;100938.38;5088131;28;20635;-56
2023/07/22 02:55:24;;;;;;;4.90;3.45;;;;;;;13.06;100.00;100934.06;5087927;28;20052;-56
2023/07/22 02:57:50;;;;;;;14.23;4.30;;;;;;;13.04;100.00;100940.34;5081592;28;20066;-55
2023/07/22 03:00:25;;;;;;;4.82;3.85;;;;;;;13.04;100.00;100945.66;5087455;28;20058;-56
2023/07/22 03:02:53;;;;;;;7.95;3.63;;;;;;;13.01;100.00;100943.16;5081869;28;20048;-56
2023/07/22 03:05:21;;;;;;;4.80;3.55;;;;;;;13.02;100.00;100936.88;5089679;28;20453;-56
2023/07/22 03:07:47;;;;;;;6.25;3.67;;;;;;;12.99;100.00;100945.00;5103677;28;20055;-56
2023/07/22 03:10:14;;;;;;;6.40;3.95;;;;;;;12.93;100.00;100941.81;5085543;28;20047;-56
2023/07/22 03:12:40;;;;;;;4.50;3.45;;;;;;;12.88;100.00;100944.75;5089148;28;20139;-56
2023/07/22 03:15:08;;;;;;;4.78;3.58;;;;;;;12.92;100.00;100954.22;5086981;28;20529;-55
2023/07/22 03:17:36;;;;;;;7.75;3.45;;;;;;;12.93;100.00;100955.97;5080461;28;20123;-56
2023/07/22 03:20:10;;;;;;;5.07;3.25;;;;;;;12.90;100.00;100955.25;5074658;28;20075;-55
2023/07/22 03:22:36;;;;;;;4.88;3.72;;;;;;;12.90;100.00;100950.81;5091433;28;20048;-56
2023/07/22 03:25:05;;;;;;;5.85;3.50;;;;;;;12.88;100.00;100955.34;5087043;28;20046;-55
2023/07/22 03:27:32;;;;;;;8.10;3.47;;;;;;;12.87;100.00;100958.06;5087745;28;20120;-55
2023/07/22 03:29:58;;;;;;;4.28;3.55;;;;;;;12.81;100.00;100957.44;5091459;28;20383;-55
2023/07/22 03:32:24;;;;;;;5.68;3.40;;;;;;;12.84;100.00;100967.03;5091714;28;20055;-56
2023/07/22 03:34:52;;;;;;;5.25;3.88;;;;;;;12.78;100.00;100967.34;5091773;28;20047;-57
2023/07/22 03:37:20;;;;;;;6.55;4.40;;;;;;;12.74;100.00;100971.97;5070977;28;20052;-56
2023/07/22 03:39:46;;;;;;;6.57;4.20;;;;;;;12.72;100.00;100972.97;5077351;28;20047;-56
2023/07/22 03:42:13;;;;;;;8.38;3.75;;;;;;;12.66;100.00;100979.44;5090910;28;20124;-56
2023/07/22 03:44:40;;;;;;;5.90;4.15;;;;;;;12.63;100.00;100983.09;5088996;28;20043;-56
2023/07/22 03:47:07;;;;;;;4.38;3.60;;;;;;;12.60;100.00;100982.41;5091610;28;20063;-56
2023/07/22 03:49:33;;;;;;;8.07;4.20;;;;;;;12.57;100.00;100986.09;5091439;28;20066;-56
2023/07/22 03:52:00;;;;;;;8.90;4.03;;;;;;;12.63;100.00;100991.06;5091361;28;20139;-56
2023/07/22 03:54:26;;;;;;;6.50;3.40;;;;;;;12.62;100.00;100989.38;5089202;28;20051;-56
2023/07/22 03:56:53;;;;;;;7.70;4.78;;;;;;;12.60;100.00;100988.59;5091308;28;20044;-56
2023/07/22 03:59:20;;;;;;;8.65;4.03;;;;;;;12.62;100.00;100988.47;5090841;28;20127;-56
2023/07/22 04:01:47;;;;;;;7.60;4.28;;;;;;;12.61;100.00;100986.78;5091196;28;20048;-56
2023/07/22 04:04:14;;;;;;;6.13;4.53;;;;;;;12.61;100.00;100986.78;5089301;28;20044;-56
2023/07/22 04:06:40;;;;;;;7.55;4.78;;;;;;;12.62;100.00;100992.00;5095951;28;20079;-56
2023/07/22 04:09:07;;;;;;;11.85;5.22;;;;;;;12.60;100.00;100999.19;5097188;28;20055;-56
2023/07/22 04:11:35;;;;;;;8.02;4.50;;;;;;;12.59;100.00;100994.81;5089366;28;20048;-56
2023/07/22 04:14:01;;;;;;;8.20;4.95;;;;;;;12.61;100.00;100995.59;5089732;28;20086;-55
2023/07/22 04:16:29;;;;;;;11.02;5.13;;;;;;;12.65;100.00;100988.34;5091213;28;20131;-55
2023/07/22 04:18:56;;;;;;;8.13;5.10;;;;;;;12.69;100.00;101000.50;5091070;28;20102;-56
2023/07/22 04:21:22;;;;;;;9.50;5.15;;;;;;;12.67;100.00;101003.25;5088883;28;20052;-56
2023/07/22 04:23:49;;;;;;;8.82;5.40;;;;;;;12.70;100.00;100998.72;5090609;28;20455;-56
2023/07/22 04:26:16;;;;;;;7.97;5.63;;;;;;;12.73;100.00;100995.91;5092012;28;20139;-56
2023/07/22 04:28:42;;;;;;;9.38;6.57;;;;;;;12.80;100.00;100997.28;5091581;28;20082;-57
2023/07/22 04:31:09;;;;;;;8.95;6.60;;;;;;;12.84;100.00;101005.03;5087498;28;20043;-56
2023/07/22 04:33:36;;;;;;;10.70;7.07;;;;;;;12.89;100.00;100996.84;5070602;28;20045;-56
2023/07/22 04:36:03;;;;;;;9.82;6.45;;;;;;;12.87;100.00;101001.38;5086373;28;20142;-56
2023/07/22 04:38:29;;;;;;;10.05;7.07;;;;;;;12.90;100.00;101001.22;5087736;28;20052;-56
2023/07/22 04:40:56;;;;;;;11.93;6.47;;;;;;;12.93;100.00;100995.75;5090990;28;20102;-56
2023/07/22 04:43:22;;;;;;;11.07;6.85;;;;;;;12.97;100.00;101005.25;5090904;28;20052;-56
2023/07/22 04:45:49;;;;;;;8.50;5.82;;;;;;;12.97;100.00;101004.41;5089956;28;20070;-56
2023/07/22 04:48:17;;;;;;;10.73;6.57;;;;;;;12.97;100.00;100999.94;5080423;28;20102;-56
2023/07/22 04:50:45;;;;;;;10.35;6.57;;;;;;;13.00;100.00;101005.09;5082911;28;20129;-56
2023/07/22 04:53:15;;;;;;;10.70;7.22;;;;;;;13.07;100.00;101004.78;5089731;28;20047;-55
2023/07/22 04:55:42;;;;;;;8.30;6.43;;;;;;;13.08;100.00;101001.19;5090060;28;20055;-55
2023/07/22 04:58:10;;;;;;;10.80;6.90;;;;;;;13.10;100.00;100997.53;5080720;28;20432;-55
2023/07/22 05:00:37;;;;;;;11.40;6.90;;;;;;;13.12;100.00;101003.59;5088812;28;20082;-55
2023/07/22 05:03:05;;;;;;;19.20;7.40;;;;;;;13.16;100.00;101006.97;5095011;28;20389;-55
2023/07/22 05:05:32;;;;;;;10.63;7.95;;;;;;;13.19;100.00;101004.13;5089441;28;20516;-55
2023/07/22 05:07:59;;;;;;;11.63;7.30;;;;;;;13.24;100.00;101018.06;5087990;28;20086;-56
2023/07/22 05:10:25;;;;;;;12.60;7.05;;;;;;;13.34;100.00;101016.66;5090874;28;20070;-55
2023/07/22 05:12:52;;;;;;;13.52;6.60;;;;;;;13.36;100.00;101011.25;5090344;28;20052;-55
2023/07/22 05:15:18;;;;;;;12.32;7.10;;;;;;;13.40;100.00;101015.44;5088175;28;20048;-55
2023/07/22 05:17:45;;;;;;;10.50;6.68;;;;;;;13.45;100.00;101009.91;5089792;28;20056;-55
2023/07/22 05:20:12;;;;;;;11.10;7.25;;;;;;;13.45;100.00;101025.84;5089769;28;20127;-56
2023/07/22 05:22:40;;;;;;;13.00;8.20;;;;;;;13.40;100.00;101013.66;5091525;28;20052;-55
2023/07/22 05:25:07;;;;;;;14.75;7.28;;;;;;;13.48;100.00;101017.69;5092784;28;20044;-55
2023/07/22 05:27:34;;;;;;;12.23;8.13;;;;;;;13.50;100.00;101013.16;5091919;28;20565;-56
2023/07/22 05:30:01;;;;;;;13.75;7.63;;;;;;;13.54;100.00;101014.72;5080888;28;20135;-56
2023/07/22 05:32:30;;;;;;;15.85;7.63;;;;;;;13.55;100.00;101022.63;5087742;28;20050;-56
2023/07/22 05:35:01;;;;;;;13.07;7.88;;;;;;;13.61;100.00;101015.25;5085884;28;20119;-56
2023/07/22 05:37:27;;;;;;;13.93;7.53;;;;;;;13.57;100.00;101011.91;5088443;28;20073;-56
2023/07/22 05:39:54;;;;;;;16.77;8.38;;;;;;;13.68;100.00;101022.81;5089023;28;20138;-56
2023/07/22 05:42:20;;;;;;;14.75;7.28;;;;;;;13.65;100.00;101028.28;5086905;28;20040;-57
2023/07/22 05:44:48;;;;;;;12.80;6.68;;;;;;;13.80;100.00;101025.72;5087300;28;20048;-56
2023/07/22 05:47:14;;;;;;;14.18;6.47;;;;;;;13.82;100.00;101023.84;5087661;28;20597;-56
2023/07/22 05:49:44;;;;;;;12.40;6.90;;;;;;;13.82;100.00;101023.84;5088222;28;20063;-56
2023/07/22 05:52:11;;;;;;;10.05;6.55;;;;;;;13.89;100.00;101030.53;5091444;28;20050;-56
2023/07/22 05:54:37;;;;;;;10.70;6.25;;;;;;;13.93;100.00;101037.41;5092834;28;20127;-55
2023/07/22 05:57:04;;;;;;;9.02;5.65;;;;;;;14.01;100.00;101029.88;5088046;28;20086;-55
2023/07/22 05:59:31;;;;;;;20.52;6.35;;;;;;;14.03;100.00;101017.34;5087447;28;20060;-57
2023/07/22 06:01:58;;;;;;;13.15;6.10;;;;;;;14.13;100.00;101023.84;5082246;28;20043;-55
2023/07/22 06:04:25;;;;;;;11.38;6.70;;;;;;;14.12;100.00;101021.28;5084532;28;20055;-57
2023/07/22 06:06:52;;;;;;;13.90;6.32;;;;;;;14.12;100.00;101021.28;5087676;28;20048;-56
2023/07/22 06:09:18;;;;;;;14.70;6.15;;;;;;;14.13;100.00;101045.09;5081122;28;20396;-57
2023/07/22 06:11:45;;;;;;;11.27;5.30;;;;;;;14.22;100.00;101037.56;5086822;28;20673;-56
2023/07/22 06:14:11;;;;;;;11.55;6.57;;;;;;;14.19;100.00;101032.41;5086201;28;20046;-55
2023/07/22 06:16:38;;;;;;;13.73;6.20;;;;;;;14.41;100.00;101043.56;5088712;28;20429;-56
2023/07/22 06:19:05;;;;;;;9.38;5.72;;;;;;;14.55;100.00;101039.25;5085596;28;20040;-56
2023/07/22 06:21:32;;;;;;;7.70;5.30;;;;;;;14.58;100.00;101044.38;5088071;28;20098;-55
2023/07/22 06:23:58;;;;;;;10.55;6.22;;;;;;;14.50;100.00;101044.84;5087806;28;20352;-55
2023/07/22 06:26:25;;;;;;;10.80;5.72;;;;;;;14.42;100.00;101034.63;5087597;28;20613;-56
2023/07/22 06:28:52;;;;;;;12.25;6.03;;;;;;;14.38;100.00;101049.03;5079726;28;20123;-56
2023/07/22 06:31:18;;;;;;;14.43;5.38;;;;;;;14.54;100.00;101042.88;5086422;28;20468;-56
2023/07/22 06:33:45;;;;;;;9.35;5.55;;;;;;;14.71;100.00;101045.41;5089522;28;20076;-57
2023/07/22 06:36:12;;;;;;;10.45;6.38;;;;;;;14.70;100.00;101043.72;5088418;28;20084;-56
2023/07/22 06:38:39;;;;;;;8.52;4.15;;;;;;;14.77;100.00;101045.06;5087038;28;20121;-57
2023/07/22 06:41:05;;;;;;;16.67;5.43;;;;;;;14.80;100.00;101039.56;5088466;28;20135;-56
2023/07/22 06:43:32;;;;;;;22.35;4.93;;;;;;;14.75;100.00;101038.97;5090802;28;20156;-56
2023/07/22 06:45:59;;;;;;;10.25;5.82;;;;;;;14.91;100.00;101038.06;5088029;28;20044;-56
2023/07/22 06:48:26;;;;;;;14.38;6.07;;;;;;;15.04;100.00;101026.59;5093135;28;20073;-57
2023/07/22 06:50:53;;;;;;;11.88;5.45;;;;;;;15.10;100.00;101025.38;5088354;28;20060;-57
2023/07/22 06:53:20;;;;;;;9.63;4.85;;;;;;;15.37;100.00;101032.66;5088290;28;20044;-57
2023/07/22 06:55:51;;;;;;;8.85;4.80;;;;;;;15.68;100.00;101036.09;5085521;28;20426;-56
2023/07/22 06:58:19;;;;;;;11.55;4.35;;;;;;;15.65;100.00;101036.28;5088567;28;20052;-57
2023/07/22 07:00:46;;;;;;;17.42;4.85;;;;;;;15.47;100.00;101033.78;5087546;28;20385;-56
2023/07/22 07:03:13;;;;;;;9.13;4.35;;;;;;;15.64;100.00;101037.22;5086585;28;20442;-57
2023/07/22 07:05:41;;;;;;;11.00;5.03;;;;;;;15.60;100.00;101028.56;5088037;28;20040;-57
2023/07/22 07:08:10;;;;;;;10.15;4.60;;;;;;;15.66;100.00;101032.63;5086687;28;20051;-57
2023/07/22 07:10:39;;;;;;;11.13;5.88;;;;;;;15.48;100.00;101024.84;5087990;28;20048;-57
2023/07/22 07:13:06;;;;;;;13.77;4.75;;;;;;;15.59;100.00;101022.38;5073974;28;20063;-56
2023/07/22 07:15:32;;;;;;;10.77;5.13;;;;;;;15.76;100.00;101017.84;5085553;28;20249;-56
2023/07/22 07:17:59;;;;;;;10.43;5.03;;;;;;;15.77;100.00;101030.19;5085505;28;20053;-56
2023/07/22 07:20:26;;;;;;;13.43;5.30;;;;;;;15.64;100.00;101013.22;5086056;28;20105;-57
2023/07/22 07:22:53;;;;;;;12.50;5.10;;;;;;;15.80;100.00;101024.66;5080328;28;20048;-56
2023/07/22 07:25:19;;;;;;;7.38;4.70;;;;;;;15.76;100.00;101017.84;5087003;28;20054;-56
2023/07/22 07:27:46;;;;;;;13.18;5.82;;;;;;;15.84;100.00;101020.88;5087017;28;20109;-56
2023/07/22 07:30:13;;;;;;;9.30;5.20;;;;;;;16.17;100.00;101024.97;5084771;28;20522;-57
2023/07/22 07:32:40;;;;;;;9.70;4.35;;;;;;;16.64;100.00;101021.00;5087303;28;20464;-56
2023/07/22 07:35:07;;;;;;;8.73;4.50;;;;;;;16.56;100.00;101031.34;5085740;28;20127;-56
2023/07/22 07:37:34;;;;;;;11.25;4.05;;;;;;;16.48;100.00;101030.97;5085716;28;20044;-55
2023/07/22 07:40:00;;;;;;;13.45;4.93;;;;;;;16.47;100.00;101023.94;5084977;28;20131;-56
2023/07/22 07:42:27;;;;;;;8.88;4.78;;;;;;;16.38;100.00;101020.06;5087366;28;20105;-56
2023/07/22 07:44:54;;;;;;;6.95;4.68;;;;;;;16.42;100.00;101031.38;5086133;28;20055;-56
2023/07/22 07:47:21;;;;;;;12.27;5.35;;;;;;;16.12;100.00;101037.75;5086028;28;20630;-56
2023/07/22 07:49:47;;;;;;;14.10;5.07;;;;;;;16.43;100.00;101033.06;5084580;28;20060;-56
2023/07/22 07:52:15;;;;;;;11.05;4.90;;;;;;;16.58;100.00;101031.22;5086248;28;20468;-56
2023/07/22 07:54:41;;;;;;;10.45;4.50;;;;;;;16.63;100.00;101029.94;5085885;28;20361;-56
2023/07/22 07:57:08;;;;;;;10.43;4.65;;;;;;;16.42;100.00;101045.56;5086135;28;20143;-56
2023/07/22 07:59:34;;;;;;;11.07;5.25;;;;;;;16.53;100.00;101050.22;5085149;28;20089;-56
2023/07/22 08:02:09;;;;;;;16.08;4.18;;;;;;;16.80;100.00;101046.66;5093798;28;20726;-56
2023/07/22 08:04:36;;;;;;;9.00;4.43;;;;;;;16.78;100.00;101043.22;5086570;28;20044;-56
2023/07/22 08:07:04;;;;;;;12.25;5.25;;;;;;;16.83;100.00;101047.28;5084886;28;20101;-56
2023/07/22 08:09:30;;;;;;;10.25;4.97;;;;;;;17.05;100.00;101049.41;5085429;28;20044;-56
2023/07/22 08:11:57;;;;;;;8.02;4.47;;;;;;;16.91;100.00;101044.16;5086209;28;20496;-56
2023/07/22 08:14:24;;;;;;;6.30;3.85;;;;;;;17.09;100.00;101035.84;5088331;28;20582;-56
2023/07/22 08:16:51;;;;;;;7.85;4.25;;;;;;;16.88;100.00;101049.69;5087749;28;20131;-56
2023/07/22 08:19:17;;;;;;;6.75;3.85;;;;;;;17.08;100.00;101050.16;5089704;28;20392;-56
2023/07/22 08:21:44;;;;;;;7.53;3.70;;;;;;;16.84;100.00;101050.84;5089679;28;20128;-57
2023/07/22 08:24:11;;;;;;;11.13;4.50;;;;;;;16.75;100.00;101049.63;5088905;28;20165;-56
2023/07/22 08:26:37;;;;;;;11.23;3.85;;;;;;;16.77;100.00;101046.84;5089670;28;20051;-56
2023/07/22 08:29:04;;;;;;;5.78;3.55;;;;;;;16.75;100.00;101048.78;5090225;28;20492;-56
2023/07/22 08:31:30;;;;;;;9.23;4.43;;;;;;;16.88;100.00;101055.03;5089498;28;20048;-56
2023/07/22 08:33:57;;;;;;;8.00;4.20;;;;;;;16.89;100.00;101062.09;5088772;28;20122;-56
2023/07/22 08:36:24;;;;;;;7.57;4.30;;;;;;;16.69;100.00;101053.56;5088335;28;20040;-56
2023/07/22 08:38:51;;;;;;;10.55;3.95;;;;;;;16.67;100.00;101055.50;5089261;28;20058;-56
2023/07/22 08:41:18;;;;;;;12.15;4.88;;;;;;;17.32;100.00;101056.47;5089174;28;20040;-56
2023/07/22 08:43:46;;;;;;;11.02;4.18;;;;;;;17.46;100.00;101060.88;5088043;28;20048;-56
2023/07/22 08:46:13;;;;;;;6.63;3.80;;;;;;;17.13;100.00;101058.69;5088465;28;20652;-56
2023/07/22 08:48:42;;;;;;;7.03;4.00;;;;;;;17.09;100.00;101063.41;5089705;28;20044;-56
2023/07/22 08:51:14;;;;;;;5.55;3.38;;;;;;;17.21;100.00;101062.56;5087132;28;20084;-56
2023/07/22 08:53:43;;;;;;;7.03;3.70;;;;;;;17.63;100.00;101074.88;5089159;28;20709;-56
2023/07/22 08:56:13;;;;;;;6.95;4.18;;;;;;;17.26;100.00;101054.22;5090392;28;20048;-56
2023/07/22 08:58:41;;;;;;;5.75;3.75;;;;;;;17.36;100.00;101063.31;5089669;28;20051;-56
2023/07/22 09:01:08;;;;;;;12.93;4.32;;;;;;;17.28;100.00;101068.34;5088430;28;20040;-55
2023/07/22 09:03:37;;;;;;;6.25;3.08;;;;;;;17.47;100.00;101067.06;5091803;28;20123;-55
2023/07/22 09:06:05;;;;;;;5.50;3.42;;;;;;;17.88;100.00;101074.00;5094951;28;20194;-55
2023/07/22 09:08:31;;;;;;;5.53;3.28;;;;;;;17.89;100.00;101073.06;5086809;28;20040;-57
2023/07/22 09:10:58;;;;;;;7.32;3.15;;;;;;;17.55;100.00;101064.72;5086839;28;20059;-55
2023/07/22 09:13:26;;;;;;;7.55;2.88;;;;;;;17.66;100.00;101062.13;5089053;28;20138;-56
2023/07/22 09:15:56;;;;;;;15.00;3.58;;;;;;;17.93;100.00;101061.16;5088626;28;20135;-56
2023/07/22 09:18:23;;;;;;;7.38;3.47;;;;;;;18.16;100.00;101059.50;5087335;28;20102;-56
2023/07/22 09:20:50;;;;;;;9.48;3.50;;;;;;;18.04;100.00;101053.22;5088608;28;20464;-56
2023/07/22 09:23:17;;;;;;;9.70;2.78;;;;;;;17.63;100.00;101067.69;5088983;28;20087;-56
2023/07/22 09:25:44;;;;;;;7.25;3.80;;;;;;;18.08;100.00;101061.88;5087440;28;20048;-56
2023/07/22 09:28:10;;;;;;;10.40;4.03;;;;;;;18.68;100.00;101044.06;5086016;28;20605;-56
2023/07/22 09:30:39;;;;;;;7.03;3.20;;;;;;;18.43;100.00;101055.78;5088118;28;20471;-56
2023/07/22 09:33:19;;;;;;;9.02;3.83;;;;;;;18.42;100.00;101060.28;5089010;28;20113;-57
2023/07/22 09:35:47;;;;;;;11.75;3.55;;;;;;;18.65;100.00;101055.00;5087180;28;20440;-56
2023/07/22 09:38:17;;;;;;;15.25;4.55;;;;;;;18.83;100.00;101061.72;5089550;28;20054;-56
2023/07/22 09:40:44;;;;;;;9.52;3.78;;;;;;;18.58;100.00;101064.47;5089916;28;20044;-56
2023/07/22 09:43:14;;;;;;;7.45;3.08;;;;;;;18.15;100.00;101066.66;5088556;28;20048;-56
2023/07/22 09:45:40;;;;;;;6.37;3.27;;;;;;;18.44;100.00;101058.34;5085242;28;20047;-58
2023/07/22 09:48:09;;;;;;;7.95;3.53;;;;;;;18.08;100.00;101060.06;5088275;28;20102;-56
2023/07/22 09:50:36;;;;;;;8.95;4.07;;;;;;;18.42;100.00;101060.28;5087861;28;20087;-55
2023/07/22 09:53:04;;;;;;;10.00;3.88;;;;;;;18.86;100.00;101064.16;5088289;28;20143;-56
2023/07/22 09:55:32;;;;;;;6.80;3.70;;;;;;;18.74;100.00;101065.03;5087752;28;20468;-56
2023/07/22 09:58:01;;;;;;;7.10;3.88;;;;;;;19.00;100.00;101071.13;5088031;28;20708;-56
2023/07/22 10:00:30;;;;;;;8.80;3.92;;;;;;;19.26;100.00;101065.59;5090113;28;20051;-56
2023/07/22 10:02:58;;;;;;;6.30;3.92;;;;;;;19.20;100.00;101066.91;5090078;28;20746;-56
2023/07/22 10:05:26;;;;;;;10.48;4.40;;;;;;;19.77;100.00;101058.97;5083630;28;20040;-56
2023/07/22 10:07:58;;;;;;;8.00;3.63;;;;;;;19.45;100.00;101070.38;5087865;28;20066;-56
2023/07/22 10:10:45;;;;;;;5.90;3.80;;;;;;;20.13;100.00;101071.25;5086471;28;20076;-57
2023/07/22 10:13:11;;;;;;;7.60;4.55;;;;;;;19.43;100.00;101066.97;5087356;28;20048;-56
2023/07/22 10:15:38;;;;;;;9.80;3.83;;;;;;;19.09;100.00;101069.56;5088348;28;20075;-57
2023/07/22 10:18:05;;;;;;;5.47;3.20;;;;;;;18.87;100.00;101063.19;5084569;28;20040;-57
2023/07/22 10:20:36;;;;;;;9.32;3.85;;;;;;;18.97;100.00;101065.16;5081392;28;20068;-56
2023/07/22 10:23:03;;;;;;;9.45;4.68;;;;;;;19.04;100.00;101067.28;5087729;28;20078;-56
2023/07/22 10:25:30;;;;;;;8.77;3.67;;;;;;;19.68;100.00;101070.41;5086961;28;20101;-56
2023/07/22 10:27:57;;;;;;;9.13;3.28;;;;;;;19.99;100.00;101064.34;5085650;28;20504;-56
2023/07/22 10:30:24;;;;;;;8.80;5.03;;;;;;;19.25;100.00;101080.81;5087297;28;20052;-56
2023/07/22 10:32:52;;;;;;;6.38;3.50;;;;;;;19.52;100.00;101066.25;5087832;28;20082;-57
2023/07/22 10:35:26;;;;;;;7.18;4.05;;;;;;;19.67;100.00;101063.34;5086747;28;20054;-56
2023/07/22 10:37:52;;;;;;;6.90;4.00;;;;;;;19.70;100.00;101058.59;5070217;28;20643;-56
2023/07/22 10:40:19;;;;;;;9.27;3.65;;;;;;;19.90;100.00;101064.22;5087053;28;20535;-56
2023/07/22 10:43:03;;;;;;;6.97;4.45;;;;;;;19.96;100.00;101058.38;5087359;28;20140;-56
2023/07/22 10:45:39;;;;;;;8.13;3.58;;;;;;;20.05;100.00;101062.97;5084042;28;20359;-56
2023/07/22 10:48:13;;;;;;;5.63;3.78;;;;;;;20.65;100.00;101047.34;5087400;28;20602;-56
2023/07/22 10:50:49;;;;;;;9.05;3.83;;;;;;;21.45;100.00;101059.38;5080868;28;20217;-56
2023/07/22 10:53:23;;;;;;;8.93;3.88;;;;;;;21.02;100.00;101052.31;5082646;28;20050;-56
2023/07/22 10:56:14;;;;;;;11.07;4.20;;;;;;;20.85;100.00;101050.19;5083045;28;20044;-57
2023/07/22 10:58:43;;;;;;;6.85;4.25;;;;;;;20.39;100.00;101054.88;5085465;28;20065;-56
2023/07/22 11:01:28;;;;;;;7.03;4.38;;;;;;;20.64;100.00;101059.06;5086727;28;20043;-56
2023/07/22 11:04:16;;;;;;;5.22;3.45;;;;;;;20.86;100.00;101062.66;5074914;28;20044;-56
2023/07/22 11:06:50;;;;;;;7.93;4.35;;;;;;;20.51;100.00;101063.72;5089461;28;20048;-57
2023/07/22 11:09:34;;;;;;;6.88;4.00;;;;;;;20.99;97.87;101057.06;5106335;28;20101;-56
2023/07/22 11:12:02;;;;;;;6.60;4.00;;;;;;;22.02;87.06;101061.63;5085498;28;20047;-56
2023/07/22 11:14:31;;;;;;;7.40;4.50;;;;;;;22.14;81.00;101060.50;5089278;28;20055;-56
2023/07/22 11:17:00;;;;;;;7.38;4.63;;;;;;;22.13;78.12;101064.22;5090746;28;20419;-56